sensor_id;sensor_type;location;lat;lon;timestamp;pressure;altitude;pressure_sealevel;temperature;humidity
28456;BME280;15682;56.742;38.866;2022-08-11T00:00:53;100450.0;;;12.5;85.8
28456;BME280;15682;56.742;38.866;2022-08-11T00:02:53;100450.0;;;12.5;85.8
28456;BME280;15682;56.742;38.866;2022-08-11T00:04:55;100450.0;;;12.4;85.5
28456;BME280;15682;56.742;38.866;2022-08-11T00:06:54;100450.0;;;12.4;86.6
28456;BME280;15682;56.742;38.866;2022-08-11T00:08:54;100450.0;;;12.4;86.0
28456;BME280;15682;56.742;38.866;2022-08-11T00:10:57;100450.0;;;12.4;86.0
28456;BME280;15682;56.742;38.866;2022-08-11T00:12:57;100450.0;;;12.2;86.0
28456;BME280;15682;56.742;38.866;2022-08-11T00:14:56;100450.0;;;12.2;86.7
28456;BME280;15682;56.742;38.866;2022-08-11T00:16:56;100450.0;;;12.2;87.4
28456;BME280;15682;56.742;38.866;2022-08-11T00:18:56;100450.0;;;12.2;86.3
28456;BME280;15682;56.742;38.866;2022-08-11T00:20:57;100450.0;;;12.2;86.3
28456;BME280;15682;56.742;38.866;2022-08-11T00:23:00;100450.0;;;12.1;86.9
28456;BME280;15682;56.742;38.866;2022-08-11T00:24:56;100450.0;;;12.1;86.9
28456;BME280;15682;56.742;38.866;2022-08-11T00:26:55;100450.0;;;12.3;86.9
28456;BME280;15682;56.742;38.866;2022-08-11T00:28:56;100450.0;;;12.4;86.9
28456;BME280;15682;56.742;38.866;2022-08-11T00:30:58;100460.0;;;12.4;86.9
28456;BME280;15682;56.742;38.866;2022-08-11T00:32:57;100460.0;;;12.2;86.9
28456;BME280;15682;56.742;38.866;2022-08-11T00:34:57;100460.0;;;12.1;86.8
28456;BME280;15682;56.742;38.866;2022-08-11T00:37:00;100460.0;;;12.0;86.8
28456;BME280;15682;56.742;38.866;2022-08-11T00:39:04;100460.0;;;12.1;86.7
28456;BME280;15682;56.742;38.866;2022-08-11T00:41:03;100460.0;;;12.1;87.2
28456;BME280;15682;56.742;38.866;2022-08-11T00:43:03;100460.0;;;12.1;87.2
28456;BME280;15682;56.742;38.866;2022-08-11T00:45:05;100470.0;;;12.0;87.0
28456;BME280;15682;56.742;38.866;2022-08-11T00:47:08;100480.0;;;12.0;87.0
28456;BME280;15682;56.742;38.866;2022-08-11T00:49:10;100480.0;;;12.0;87.0
28456;BME280;15682;56.742;38.866;2022-08-11T00:51:05;100480.0;;;11.8;87.0
28456;BME280;15682;56.742;38.866;2022-08-11T00:53:24;100480.0;;;12.0;87.1
28456;BME280;15682;56.742;38.866;2022-08-11T00:57:24;100490.0;;;11.7;87.1
28456;BME280;15682;56.742;38.866;2022-08-11T01:01:08;100490.0;;;11.7;87.4
28456;BME280;15682;56.742;38.866;2022-08-11T01:03:12;100490.0;;;11.7;87.4
28456;BME280;15682;56.742;38.866;2022-08-11T01:05:27;100490.0;;;11.5;88.1
28456;BME280;15682;56.742;38.866;2022-08-11T01:07:21;100490.0;;;11.5;88.1
28456;BME280;15682;56.742;38.866;2022-08-11T01:09:15;100490.0;;;11.7;87.7
28456;BME280;15682;56.742;38.866;2022-08-11T01:11:22;100490.0;;;11.8;87.6
28456;BME280;15682;56.742;38.866;2022-08-11T01:13:10;100490.0;;;11.8;87.6
28456;BME280;15682;56.742;38.866;2022-08-11T01:15:23;100490.0;;;11.8;86.7
28456;BME280;15682;56.742;38.866;2022-08-11T01:17:28;100490.0;;;11.8;87.6
28456;BME280;15682;56.742;38.866;2022-08-11T01:19:31;100490.0;;;11.6;86.8
28456;BME280;15682;56.742;38.866;2022-08-11T01:21:22;100490.0;;;11.6;87.6
28456;BME280;15682;56.742;38.866;2022-08-11T01:23:26;100490.0;;;11.6;87.3
28456;BME280;15682;56.742;38.866;2022-08-11T01:25:25;100490.0;;;11.5;86.6
28456;BME280;15682;56.742;38.866;2022-08-11T01:29:23;100490.0;;;11.7;87.1
28456;BME280;15682;56.742;38.866;2022-08-11T01:31:25;100490.0;;;11.6;86.2
28456;BME280;15682;56.742;38.866;2022-08-11T01:35:20;100490.0;;;11.5;87.1
28456;BME280;15682;56.742;38.866;2022-08-11T01:37:23;100500.0;;;11.5;87.6
28456;BME280;15682;56.742;38.866;2022-08-11T01:39:25;100500.0;;;11.3;87.6
28456;BME280;15682;56.742;38.866;2022-08-11T01:41:21;100510.0;;;11.3;87.6
28456;BME280;15682;56.742;38.866;2022-08-11T01:43:33;100520.0;;;11.3;87.9
28456;BME280;15682;56.742;38.866;2022-08-11T01:45:10;100520.0;;;11.3;87.9
28456;BME280;15682;56.742;38.866;2022-08-11T01:47:15;100520.0;;;11.3;88.2
28456;BME280;15682;56.742;38.866;2022-08-11T01:49:11;100520.0;;;11.3;88.2
28456;BME280;15682;56.742;38.866;2022-08-11T01:51:14;100520.0;;;11.3;88.2
28456;BME280;15682;56.742;38.866;2022-08-11T01:53:11;100520.0;;;11.2;88.2
28456;BME280;15682;56.742;38.866;2022-08-11T01:55:11;100520.0;;;11.3;88.1
28456;BME280;15682;56.742;38.866;2022-08-11T01:59:14;100520.0;;;11.3;87.5
28456;BME280;15682;56.742;38.866;2022-08-11T02:01:25;100520.0;;;11.3;87.5
28456;BME280;15682;56.742;38.866;2022-08-11T02:03:11;100520.0;;;11.1;87.5
28456;BME280;15682;56.742;38.866;2022-08-11T02:05:14;100520.0;;;11.1;87.5
28456;BME280;15682;56.742;38.866;2022-08-11T02:07:15;100520.0;;;11.1;87.5
28456;BME280;15682;56.742;38.866;2022-08-11T02:09:12;100520.0;;;11.1;87.5
28456;BME280;15682;56.742;38.866;2022-08-11T02:11:17;100540.0;;;11.3;87.5
28456;BME280;15682;56.742;38.866;2022-08-11T02:13:13;100540.0;;;11.4;87.5
28456;BME280;15682;56.742;38.866;2022-08-11T02:15:13;100540.0;;;11.4;86.9
28456;BME280;15682;56.742;38.866;2022-08-11T02:17:14;100540.0;;;11.3;86.9
28456;BME280;15682;56.742;38.866;2022-08-11T02:19:19;100550.0;;;11.3;87.7
28456;BME280;15682;56.742;38.866;2022-08-11T02:21:08;100550.0;;;11.5;87.2
28456;BME280;15682;56.742;38.866;2022-08-11T02:23:16;100550.0;;;11.3;87.2
28456;BME280;15682;56.742;38.866;2022-08-11T02:25:10;100550.0;;;11.1;87.1
28456;BME280;15682;56.742;38.866;2022-08-11T02:27:13;100550.0;;;11.1;87.7
28456;BME280;15682;56.742;38.866;2022-08-11T02:29:15;100550.0;;;11.1;88.5
28456;BME280;15682;56.742;38.866;2022-08-11T02:31:12;100550.0;;;11.3;88.5
28456;BME280;15682;56.742;38.866;2022-08-11T02:33:16;100550.0;;;11.5;88.1
28456;BME280;15682;56.742;38.866;2022-08-11T02:35:14;100550.0;;;11.7;87.8
28456;BME280;15682;56.742;38.866;2022-08-11T02:37:16;100550.0;;;11.7;87.8
28456;BME280;15682;56.742;38.866;2022-08-11T02:39:10;100550.0;;;11.6;87.8
28456;BME280;15682;56.742;38.866;2022-08-11T02:41:12;100550.0;;;11.6;87.8
28456;BME280;15682;56.742;38.866;2022-08-11T02:43:18;100550.0;;;11.6;87.8
28456;BME280;15682;56.742;38.866;2022-08-11T02:45:30;100560.0;;;11.6;87.8
28456;BME280;15682;56.742;38.866;2022-08-11T02:47:14;100560.0;;;11.7;87.8
28456;BME280;15682;56.742;38.866;2022-08-11T02:49:13;100560.0;;;11.7;87.8
28456;BME280;15682;56.742;38.866;2022-08-11T02:51:13;100570.0;;;11.7;87.8
28456;BME280;15682;56.742;38.866;2022-08-11T02:53:12;100570.0;;;11.8;87.2
28456;BME280;15682;56.742;38.866;2022-08-11T02:55:17;100570.0;;;11.9;87.2
28456;BME280;15682;56.742;38.866;2022-08-11T02:57:16;100570.0;;;12.0;87.2
28456;BME280;15682;56.742;38.866;2022-08-11T02:59:19;100570.0;;;12.1;87.2
28456;BME280;15682;56.742;38.866;2022-08-11T03:01:16;100570.0;;;12.3;86.4
28456;BME280;15682;56.742;38.866;2022-08-11T03:03:16;100570.0;;;12.4;86.4
28456;BME280;15682;56.742;38.866;2022-08-11T03:05:21;100570.0;;;12.6;85.6
28456;BME280;15682;56.742;38.866;2022-08-11T03:07:20;100570.0;;;12.7;84.8
28456;BME280;15682;56.742;38.866;2022-08-11T03:09:16;100570.0;;;13.1;84.8
28456;BME280;15682;56.742;38.866;2022-08-11T03:11:14;100570.0;;;13.1;82.3
28456;BME280;15682;56.742;38.866;2022-08-11T03:13:17;100570.0;;;13.3;82.2
28456;BME280;15682;56.742;38.866;2022-08-11T03:15:17;100570.0;;;13.4;80.4
28456;BME280;15682;56.742;38.866;2022-08-11T03:17:22;100570.0;;;13.5;79.3
28456;BME280;15682;56.742;38.866;2022-08-11T03:19:18;100570.0;;;13.5;79.3
28456;BME280;15682;56.742;38.866;2022-08-11T03:21:18;100580.0;;;13.5;79.4
28456;BME280;15682;56.742;38.866;2022-08-11T03:23:17;100580.0;;;13.7;79.9
28456;BME280;15682;56.742;38.866;2022-08-11T03:25:18;100580.0;;;13.8;79.9
28456;BME280;15682;56.742;38.866;2022-08-11T03:27:26;100580.0;;;14.0;79.3
28456;BME280;15682;56.742;38.866;2022-08-11T03:29:19;100580.0;;;14.1;79.3
28456;BME280;15682;56.742;38.866;2022-08-11T03:31:20;100590.0;;;14.2;79.0
28456;BME280;15682;56.742;38.866;2022-08-11T03:33:22;100590.0;;;14.2;79.0
28456;BME280;15682;56.742;38.866;2022-08-11T03:35:16;100600.0;;;14.2;79.0
28456;BME280;15682;56.742;38.866;2022-08-11T03:37:32;100600.0;;;14.4;79.0
28456;BME280;15682;56.742;38.866;2022-08-11T03:39:21;100600.0;;;14.4;79.0
28456;BME280;15682;56.742;38.866;2022-08-11T03:41:22;100600.0;;;14.4;79.3
28456;BME280;15682;56.742;38.866;2022-08-11T03:43:23;100600.0;;;14.4;79.3
28456;BME280;15682;56.742;38.866;2022-08-11T03:45:22;100600.0;;;14.4;78.8
28456;BME280;15682;56.742;38.866;2022-08-11T03:47:36;100600.0;;;14.4;78.4
28456;BME280;15682;56.742;38.866;2022-08-11T03:49:27;100600.0;;;14.4;77.9
28456;BME280;15682;56.742;38.866;2022-08-11T03:51:22;100600.0;;;14.4;77.9
28456;BME280;15682;56.742;38.866;2022-08-11T03:53:25;100600.0;;;14.4;77.4
28456;BME280;15682;56.742;38.866;2022-08-11T03:55:27;100600.0;;;14.5;78.0
28456;BME280;15682;56.742;38.866;2022-08-11T03:57:32;100600.0;;;14.7;77.4
28456;BME280;15682;56.742;38.866;2022-08-11T03:59:34;100600.0;;;14.8;77.4
28456;BME280;15682;56.742;38.866;2022-08-11T04:01:37;100600.0;;;15.0;77.7
28456;BME280;15682;56.742;38.866;2022-08-11T04:03:36;100600.0;;;15.0;76.7
28456;BME280;15682;56.742;38.866;2022-08-11T04:05:39;100600.0;;;15.1;76.7
28456;BME280;15682;56.742;38.866;2022-08-11T04:07:55;100600.0;;;15.2;76.7
28456;BME280;15682;56.742;38.866;2022-08-11T04:11:35;100600.0;;;15.5;76.8
28456;BME280;15682;56.742;38.866;2022-08-11T04:13:52;100600.0;;;15.5;76.8
28456;BME280;15682;56.742;38.866;2022-08-11T04:15:48;100600.0;;;15.6;76.8
28456;BME280;15682;56.742;38.866;2022-08-11T04:17:47;100600.0;;;15.6;76.2
28456;BME280;15682;56.742;38.866;2022-08-11T04:21:50;100600.0;;;15.9;76.1
28456;BME280;15682;56.742;38.866;2022-08-11T04:25:35;100600.0;;;16.0;75.4
28456;BME280;15682;56.742;38.866;2022-08-11T04:27:51;100610.0;;;16.1;75.4
28456;BME280;15682;56.742;38.866;2022-08-11T04:29:37;100610.0;;;16.1;75.4
28456;BME280;15682;56.742;38.866;2022-08-11T04:31:35;100610.0;;;16.3;73.9
28456;BME280;15682;56.742;38.866;2022-08-11T04:33:41;100610.0;;;16.2;74.6
28456;BME280;15682;56.742;38.866;2022-08-11T04:35:37;100610.0;;;16.2;74.5
28456;BME280;15682;56.742;38.866;2022-08-11T04:37:46;100610.0;;;16.4;74.5
28456;BME280;15682;56.742;38.866;2022-08-11T04:39:42;100610.0;;;16.4;74.5
28456;BME280;15682;56.742;38.866;2022-08-11T04:41:52;100610.0;;;16.4;75.1
28456;BME280;15682;56.742;38.866;2022-08-11T04:43:53;100610.0;;;16.3;75.1
28456;BME280;15682;56.742;38.866;2022-08-11T04:45:39;100610.0;;;16.3;75.1
28456;BME280;15682;56.742;38.866;2022-08-11T04:47:46;100610.0;;;16.4;75.1
28456;BME280;15682;56.742;38.866;2022-08-11T04:49:52;100610.0;;;16.6;74.5
28456;BME280;15682;56.742;38.866;2022-08-11T04:51:47;100610.0;;;16.7;74.5
28456;BME280;15682;56.742;38.866;2022-08-11T04:53:44;100610.0;;;16.8;74.5
28456;BME280;15682;56.742;38.866;2022-08-11T04:55:59;100610.0;;;16.8;73.8
28456;BME280;15682;56.742;38.866;2022-08-11T04:57:45;100610.0;;;17.0;73.3
28456;BME280;15682;56.742;38.866;2022-08-11T04:59:57;100610.0;;;17.1;73.3
28456;BME280;15682;56.742;38.866;2022-08-11T05:01:45;100610.0;;;17.1;73.1
28456;BME280;15682;56.742;38.866;2022-08-11T05:03:50;100610.0;;;17.2;73.1
28456;BME280;15682;56.742;38.866;2022-08-11T05:06:07;100610.0;;;17.4;72.3
28456;BME280;15682;56.742;38.866;2022-08-11T05:09:52;100610.0;;;17.7;71.8
28456;BME280;15682;56.742;38.866;2022-08-11T05:11:51;100610.0;;;17.9;71.0
28456;BME280;15682;56.742;38.866;2022-08-11T05:13:44;100610.0;;;18.0;70.4
28456;BME280;15682;56.742;38.866;2022-08-11T05:15:45;100610.0;;;18.0;70.4
28456;BME280;15682;56.742;38.866;2022-08-11T05:17:44;100610.0;;;18.2;69.8
28456;BME280;15682;56.742;38.866;2022-08-11T05:19:44;100610.0;;;18.3;69.8
28456;BME280;15682;56.742;38.866;2022-08-11T05:21:47;100610.0;;;18.4;69.7
28456;BME280;15682;56.742;38.866;2022-08-11T05:23:56;100610.0;;;18.4;69.7
28456;BME280;15682;56.742;38.866;2022-08-11T05:25:45;100610.0;;;18.6;69.7
28456;BME280;15682;56.742;38.866;2022-08-11T05:27:49;100600.0;;;18.6;69.7
28456;BME280;15682;56.742;38.866;2022-08-11T05:29:46;100600.0;;;18.7;69.7
28456;BME280;15682;56.742;38.866;2022-08-11T05:31:50;100600.0;;;18.7;69.5
28456;BME280;15682;56.742;38.866;2022-08-11T05:33:47;100600.0;;;18.8;69.5
28456;BME280;15682;56.742;38.866;2022-08-11T05:35:48;100600.0;;;18.9;69.5
28456;BME280;15682;56.742;38.866;2022-08-11T05:37:47;100600.0;;;19.0;69.5
28456;BME280;15682;56.742;38.866;2022-08-11T05:39:50;100600.0;;;19.0;69.5
28456;BME280;15682;56.742;38.866;2022-08-11T05:41:49;100600.0;;;19.0;69.7
28456;BME280;15682;56.742;38.866;2022-08-11T05:43:50;100600.0;;;19.1;69.7
28456;BME280;15682;56.742;38.866;2022-08-11T05:45:55;100600.0;;;19.1;69.7
28456;BME280;15682;56.742;38.866;2022-08-11T05:47:50;100600.0;;;19.1;70.5
28456;BME280;15682;56.742;38.866;2022-08-11T05:49:52;100600.0;;;19.2;70.5
28456;BME280;15682;56.742;38.866;2022-08-11T05:51:51;100600.0;;;19.3;70.6
28456;BME280;15682;56.742;38.866;2022-08-11T05:53:56;100600.0;;;19.3;70.0
28456;BME280;15682;56.742;38.866;2022-08-11T05:55:53;100600.0;;;19.3;70.0
28456;BME280;15682;56.742;38.866;2022-08-11T05:57:55;100600.0;;;19.3;70.0
28456;BME280;15682;56.742;38.866;2022-08-11T05:59:58;100610.0;;;19.5;69.4
28456;BME280;15682;56.742;38.866;2022-08-11T06:01:59;100610.0;;;19.5;69.4
28456;BME280;15682;56.742;38.866;2022-08-11T06:03:57;100610.0;;;19.6;67.4
28456;BME280;15682;56.742;38.866;2022-08-11T06:05:57;100610.0;;;19.9;63.6
28456;BME280;15682;56.742;38.866;2022-08-11T06:07:57;100610.0;;;19.9;61.2
28456;BME280;15682;56.742;38.866;2022-08-11T06:09:58;100610.0;;;19.9;63.1
28456;BME280;15682;56.742;38.866;2022-08-11T06:12:01;100610.0;;;20.1;60.6
28456;BME280;15682;56.742;38.866;2022-08-11T06:14:01;100610.0;;;20.2;60.6
28456;BME280;15682;56.742;38.866;2022-08-11T06:16:00;100610.0;;;20.3;59.8
28456;BME280;15682;56.742;38.866;2022-08-11T06:18:01;100610.0;;;20.3;59.8
28456;BME280;15682;56.742;38.866;2022-08-11T06:20:04;100610.0;;;20.4;58.6
28456;BME280;15682;56.742;38.866;2022-08-11T06:22:03;100610.0;;;20.4;58.0
28456;BME280;15682;56.742;38.866;2022-08-11T06:24:03;100610.0;;;20.2;58.0
28456;BME280;15682;56.742;38.866;2022-08-11T06:26:07;100610.0;;;20.4;58.0
28456;BME280;15682;56.742;38.866;2022-08-11T06:28:05;100610.0;;;20.4;56.9
28456;BME280;15682;56.742;38.866;2022-08-11T06:30:06;100610.0;;;20.4;57.5
28456;BME280;15682;56.742;38.866;2022-08-11T06:32:05;100610.0;;;20.5;57.8
28456;BME280;15682;56.742;38.866;2022-08-11T06:34:11;100610.0;;;20.5;56.3
28456;BME280;15682;56.742;38.866;2022-08-11T06:36:11;100610.0;;;20.5;56.9
28456;BME280;15682;56.742;38.866;2022-08-11T06:38:10;100610.0;;;20.5;56.9
28456;BME280;15682;56.742;38.866;2022-08-11T06:40:11;100610.0;;;20.5;56.3
28456;BME280;15682;56.742;38.866;2022-08-11T06:42:12;100610.0;;;20.7;56.5
28456;BME280;15682;56.742;38.866;2022-08-11T06:44:17;100610.0;;;20.7;54.3
28456;BME280;15682;56.742;38.866;2022-08-11T06:46:10;100610.0;;;20.7;52.7
28456;BME280;15682;56.742;38.866;2022-08-11T06:48:15;100610.0;;;20.7;54.5
28456;BME280;15682;56.742;38.866;2022-08-11T06:50:15;100610.0;;;20.7;54.0
28456;BME280;15682;56.742;38.866;2022-08-11T06:52:12;100610.0;;;20.7;53.5
28456;BME280;15682;56.742;38.866;2022-08-11T06:54:13;100610.0;;;20.9;52.2
28456;BME280;15682;56.742;38.866;2022-08-11T06:56:15;100610.0;;;20.9;52.2
28456;BME280;15682;56.742;38.866;2022-08-11T06:58:17;100610.0;;;21.0;52.2
28456;BME280;15682;56.742;38.866;2022-08-11T07:00:16;100610.0;;;21.0;51.9
28456;BME280;15682;56.742;38.866;2022-08-11T07:02:18;100620.0;;;20.9;54.2
28456;BME280;15682;56.742;38.866;2022-08-11T07:04:30;100620.0;;;20.6;53.1
28456;BME280;15682;56.742;38.866;2022-08-11T07:06:27;100620.0;;;20.6;51.7
28456;BME280;15682;56.742;38.866;2022-08-11T07:08:39;100620.0;;;20.8;52.3
28456;BME280;15682;56.742;38.866;2022-08-11T07:10:32;100620.0;;;20.9;51.8
28456;BME280;15682;56.742;38.866;2022-08-11T07:12:36;100620.0;;;21.2;50.9
28456;BME280;15682;56.742;38.866;2022-08-11T07:14:24;100620.0;;;21.5;51.4
28456;BME280;15682;56.742;38.866;2022-08-11T07:16:25;100620.0;;;21.6;50.8
28456;BME280;15682;56.742;38.866;2022-08-11T07:18:24;100620.0;;;21.6;51.4
28456;BME280;15682;56.742;38.866;2022-08-11T07:20:20;100620.0;;;21.8;50.6
28456;BME280;15682;56.742;38.866;2022-08-11T07:22:23;100620.0;;;21.5;50.6
28456;BME280;15682;56.742;38.866;2022-08-11T07:24:26;100620.0;;;21.6;50.6
28456;BME280;15682;56.742;38.866;2022-08-11T07:26:24;100610.0;;;21.7;49.9
28456;BME280;15682;56.742;38.866;2022-08-11T07:28:26;100610.0;;;21.7;51.1
28456;BME280;15682;56.742;38.866;2022-08-11T07:30:24;100610.0;;;21.9;49.8
28456;BME280;15682;56.742;38.866;2022-08-11T07:32:27;100610.0;;;22.2;50.5
28456;BME280;15682;56.742;38.866;2022-08-11T07:34:28;100610.0;;;22.3;50.1
28456;BME280;15682;56.742;38.866;2022-08-11T07:36:27;100610.0;;;22.5;48.7
28456;BME280;15682;56.742;38.866;2022-08-11T07:38:33;100610.0;;;22.5;47.2
28456;BME280;15682;56.742;38.866;2022-08-11T07:40:26;100610.0;;;22.2;47.0
28456;BME280;15682;56.742;38.866;2022-08-11T07:42:30;100610.0;;;22.2;48.2
28456;BME280;15682;56.742;38.866;2022-08-11T07:44:28;100610.0;;;21.9;48.2
28456;BME280;15682;56.742;38.866;2022-08-11T07:46:28;100610.0;;;21.8;49.1
28456;BME280;15682;56.742;38.866;2022-08-11T07:48:28;100610.0;;;21.8;48.0
28456;BME280;15682;56.742;38.866;2022-08-11T07:50:29;100610.0;;;21.8;49.1
28456;BME280;15682;56.742;38.866;2022-08-11T07:52:32;100610.0;;;21.8;49.7
28456;BME280;15682;56.742;38.866;2022-08-11T07:54:30;100610.0;;;22.0;49.8
28456;BME280;15682;56.742;38.866;2022-08-11T07:56:32;100610.0;;;21.8;49.3
28456;BME280;15682;56.742;38.866;2022-08-11T07:58:33;100610.0;;;21.8;50.1
28456;BME280;15682;56.742;38.866;2022-08-11T08:00:35;100610.0;;;21.8;52.0
28456;BME280;15682;56.742;38.866;2022-08-11T08:02:32;100610.0;;;21.8;52.0
28456;BME280;15682;56.742;38.866;2022-08-11T08:04:33;100610.0;;;21.7;51.3
28456;BME280;15682;56.742;38.866;2022-08-11T08:06:33;100610.0;;;22.1;49.1
28456;BME280;15682;56.742;38.866;2022-08-11T08:08:34;100610.0;;;22.7;48.2
28456;BME280;15682;56.742;38.866;2022-08-11T08:10:34;100610.0;;;23.1;47.7
28456;BME280;15682;56.742;38.866;2022-08-11T08:12:34;100610.0;;;23.1;47.7
28456;BME280;15682;56.742;38.866;2022-08-11T08:14:35;100610.0;;;23.1;47.2
28456;BME280;15682;56.742;38.866;2022-08-11T08:16:36;100610.0;;;23.1;46.7
28456;BME280;15682;56.742;38.866;2022-08-11T08:18:36;100610.0;;;23.1;46.5
28456;BME280;15682;56.742;38.866;2022-08-11T08:20:38;100600.0;;;23.3;45.0
28456;BME280;15682;56.742;38.866;2022-08-11T08:22:37;100600.0;;;23.4;45.0
28456;BME280;15682;56.742;38.866;2022-08-11T08:24:38;100600.0;;;23.7;44.2
28456;BME280;15682;56.742;38.866;2022-08-11T08:26:38;100590.0;;;23.5;43.7
28456;BME280;15682;56.742;38.866;2022-08-11T08:28:38;100590.0;;;23.5;42.5
28456;BME280;15682;56.742;38.866;2022-08-11T08:30:39;100590.0;;;23.1;43.0
28456;BME280;15682;56.742;38.866;2022-08-11T08:32:40;100590.0;;;22.8;44.7
28456;BME280;15682;56.742;38.866;2022-08-11T08:34:39;100590.0;;;22.9;46.0
28456;BME280;15682;56.742;38.866;2022-08-11T08:36:41;100590.0;;;23.0;47.2
28456;BME280;15682;56.742;38.866;2022-08-11T08:38:42;100590.0;;;22.3;48.0
28456;BME280;15682;56.742;38.866;2022-08-11T08:40:42;100590.0;;;22.1;50.0
28456;BME280;15682;56.742;38.866;2022-08-11T08:42:47;100590.0;;;22.0;50.4
28456;BME280;15682;56.742;38.866;2022-08-11T08:44:46;100590.0;;;21.8;50.7
28456;BME280;15682;56.742;38.866;2022-08-11T08:46:47;100590.0;;;21.8;50.7
28456;BME280;15682;56.742;38.866;2022-08-11T08:48:43;100590.0;;;22.7;48.8
28456;BME280;15682;56.742;38.866;2022-08-11T08:50:47;100590.0;;;22.2;51.0
28456;BME280;15682;56.742;38.866;2022-08-11T08:52:49;100590.0;;;22.0;52.1
28456;BME280;15682;56.742;38.866;2022-08-11T08:54:48;100590.0;;;22.3;51.9
28456;BME280;15682;56.742;38.866;2022-08-11T08:56:45;100590.0;;;22.8;49.5
28456;BME280;15682;56.742;38.866;2022-08-11T08:58:47;100590.0;;;23.6;47.2
28456;BME280;15682;56.742;38.866;2022-08-11T09:00:49;100590.0;;;23.7;46.6
28456;BME280;15682;56.742;38.866;2022-08-11T09:02:47;100590.0;;;23.9;46.6
28456;BME280;15682;56.742;38.866;2022-08-11T09:04:47;100590.0;;;24.0;46.9
28456;BME280;15682;56.742;38.866;2022-08-11T09:06:47;100590.0;;;24.2;46.9
28456;BME280;15682;56.742;38.866;2022-08-11T09:08:48;100590.0;;;24.0;46.5
28456;BME280;15682;56.742;38.866;2022-08-11T09:10:49;100590.0;;;24.0;46.5
28456;BME280;15682;56.742;38.866;2022-08-11T09:12:49;100580.0;;;23.9;46.5
28456;BME280;15682;56.742;38.866;2022-08-11T09:14:50;100580.0;;;24.1;45.7
28456;BME280;15682;56.742;38.866;2022-08-11T09:16:50;100580.0;;;24.1;44.0
28456;BME280;15682;56.742;38.866;2022-08-11T09:18:51;100580.0;;;24.4;44.5
28456;BME280;15682;56.742;38.866;2022-08-11T09:20:51;100580.0;;;24.2;43.8
28456;BME280;15682;56.742;38.866;2022-08-11T09:22:56;100580.0;;;24.7;44.0
28456;BME280;15682;56.742;38.866;2022-08-11T09:24:52;100580.0;;;25.2;44.0
28456;BME280;15682;56.742;38.866;2022-08-11T09:26:52;100580.0;;;25.0;43.9
28456;BME280;15682;56.742;38.866;2022-08-11T09:28:53;100570.0;;;25.2;43.9
28456;BME280;15682;56.742;38.866;2022-08-11T09:30:53;100570.0;;;25.2;44.5
28456;BME280;15682;56.742;38.866;2022-08-11T09:33:00;100570.0;;;25.5;44.5
28456;BME280;15682;56.742;38.866;2022-08-11T09:34:54;100570.0;;;24.9;45.1
28456;BME280;15682;56.742;38.866;2022-08-11T09:36:55;100570.0;;;25.0;45.1
28456;BME280;15682;56.742;38.866;2022-08-11T09:38:56;100570.0;;;25.1;44.2
28456;BME280;15682;56.742;38.866;2022-08-11T09:40:56;100570.0;;;24.9;45.1
28456;BME280;15682;56.742;38.866;2022-08-11T09:42:58;100560.0;;;25.2;45.1
28456;BME280;15682;56.742;38.866;2022-08-11T09:44:57;100560.0;;;25.4;45.1
28456;BME280;15682;56.742;38.866;2022-08-11T09:46:57;100560.0;;;25.0;45.1
28456;BME280;15682;56.742;38.866;2022-08-11T09:48:59;100550.0;;;25.0;44.4
28456;BME280;15682;56.742;38.866;2022-08-11T09:51:00;100550.0;;;24.6;44.4
28456;BME280;15682;56.742;38.866;2022-08-11T09:52:59;100550.0;;;24.7;44.9
28456;BME280;15682;56.742;38.866;2022-08-11T09:55:00;100550.0;;;24.8;45.5
28456;BME280;15682;56.742;38.866;2022-08-11T09:57:00;100550.0;;;24.6;46.2
28456;BME280;15682;56.742;38.866;2022-08-11T09:59:01;100550.0;;;24.6;44.4
28456;BME280;15682;56.742;38.866;2022-08-11T10:01:01;100550.0;;;24.6;43.6
28456;BME280;15682;56.742;38.866;2022-08-11T10:03:05;100550.0;;;24.4;43.0
28456;BME280;15682;56.742;38.866;2022-08-11T10:05:03;100550.0;;;24.3;43.7
28456;BME280;15682;56.742;38.866;2022-08-11T10:07:04;100550.0;;;24.9;44.4
28456;BME280;15682;56.742;38.866;2022-08-11T10:09:05;100540.0;;;25.0;45.7
28456;BME280;15682;56.742;38.866;2022-08-11T10:11:05;100540.0;;;25.1;43.5
28456;BME280;15682;56.742;38.866;2022-08-11T10:13:07;100540.0;;;25.0;43.5
28456;BME280;15682;56.742;38.866;2022-08-11T10:15:07;100540.0;;;25.1;42.9
28456;BME280;15682;56.742;38.866;2022-08-11T10:17:07;100540.0;;;25.1;43.5
28456;BME280;15682;56.742;38.866;2022-08-11T10:19:07;100540.0;;;25.3;43.5
28456;BME280;15682;56.742;38.866;2022-08-11T10:21:10;100540.0;;;25.3;43.2
28456;BME280;15682;56.742;38.866;2022-08-11T10:23:08;100530.0;;;25.3;43.7
28456;BME280;15682;56.742;38.866;2022-08-11T10:25:08;100530.0;;;25.3;44.0
28456;BME280;15682;56.742;38.866;2022-08-11T10:27:08;100530.0;;;25.1;43.4
28456;BME280;15682;56.742;38.866;2022-08-11T10:29:09;100530.0;;;25.0;43.4
28456;BME280;15682;56.742;38.866;2022-08-11T10:31:09;100530.0;;;25.2;42.7
28456;BME280;15682;56.742;38.866;2022-08-11T10:33:11;100530.0;;;25.0;42.8
28456;BME280;15682;56.742;38.866;2022-08-11T10:35:10;100530.0;;;25.0;42.8
28456;BME280;15682;56.742;38.866;2022-08-11T10:37:11;100530.0;;;25.0;42.8
28456;BME280;15682;56.742;38.866;2022-08-11T10:39:13;100530.0;;;24.7;42.8
28456;BME280;15682;56.742;38.866;2022-08-11T10:41:12;100530.0;;;24.8;42.8
28456;BME280;15682;56.742;38.866;2022-08-11T10:43:13;100530.0;;;24.8;43.7
28456;BME280;15682;56.742;38.866;2022-08-11T10:45:14;100530.0;;;25.0;44.0
28456;BME280;15682;56.742;38.866;2022-08-11T10:47:14;100530.0;;;25.1;42.5
28456;BME280;15682;56.742;38.866;2022-08-11T10:49:14;100530.0;;;24.6;42.6
28456;BME280;15682;56.742;38.866;2022-08-11T10:51:14;100530.0;;;24.7;43.2
28456;BME280;15682;56.742;38.866;2022-08-11T10:53:17;100530.0;;;24.5;44.2
28456;BME280;15682;56.742;38.866;2022-08-11T10:55:15;100530.0;;;24.4;44.2
28456;BME280;15682;56.742;38.866;2022-08-11T10:57:16;100530.0;;;24.4;44.2
28456;BME280;15682;56.742;38.866;2022-08-11T10:59:16;100530.0;;;24.4;44.1
28456;BME280;15682;56.742;38.866;2022-08-11T11:01:22;100530.0;;;24.4;43.8
28456;BME280;15682;56.742;38.866;2022-08-11T11:03:17;100530.0;;;24.4;44.4